Last 7 Days

Williams 2 (WL2)

Hourly Data | America/Los_Angeles
as of 4/23/19 4:53 PM PDT
Date & Time Temp (°F) RH (%) Dew Pt (°F) Wind Spd (mph) Wind Dir (°) Wind Gust (mph) Wind Gst Dir (°) Latest Rain (In) Solar Rad Tot Hr (Cal/cm2) Daily Rain (In) Daily Min Temp (°F) Daily Max Temp (°F)
4/23/19 - 1300 83.7 38 55.3 3.2 SE | 138 6.6 SSE | 157 0.00 74 0.00 52.2 85.6
4/23/19 - 1200 80.3 43 56.1 3.8 SSE | 155 7.1 S | 183 0.00 69 0.00 52.2 82.2
4/23/19 - 1100 77.1 46 54.6 3.3 SSE | 148 6.8 S | 172 0.00 59 0.00 52.2 79.1
4/23/19 - 1000 72.6 52 54.0 2.9 SSE | 168 6.3 ESE | 120 0.00 44 0.00 52.2 75.2
4/23/19 - 0900 67.8 63 54.6 1.3 S | 180 5.6 S | 188 0.00 29 0.00 52.2 74.7
4/23/19 - 0800 57.1 84 52.2 0.7 NNE | 27 3.8 NNE | 14 0.00 11 0.00 52.2 74.7
4/23/19 - 0700 53.4 84 48.8 1.0 NNE | 13 3.9 NE | 49 0.00 1 0.00 52.2 74.7
4/23/19 - 0600 55.0 80 49.0 0.7 SE | 132 3.8 SE | 142 0.00 0 0.00 54.5 74.7
4/23/19 - 0500 61.1 65 48.5 1.5 NW | 316 6.9 SW | 230 0.00 0 0.00 56.2 74.7
4/23/19 - 0400 72.5 35 43.0 9.6 NNW | 344 15.5 NNW | 337 0.00 0 0.00 65.8 74.7
4/23/19 - 0300 68.7 41 44.1 7.1 NNW | 327 12.6 NNW | 333 0.00 0 0.00 65.8 74.7
4/23/19 - 0200 71.7 34 42.2 9.6 NNW | 346 14.2 NNW | 327 0.00 0 0.00 66.7 74.7
4/23/19 - 0100 72.1 33 41.1 9.4 NNW | 339 15.7 NNW | 344 0.00 0 0.00 66.7 74.7
4/23/19 - 0000 65.4 42 41.9 6.4 NW | 326 9.5 NNW | 328 0.00 0 0.00 59.2 86.2
4/22/19 - 2300 69.5 32 38.4 6.4 NNW | 333 10.3 N | 352 0.00 0 0.00 59.2 86.2
4/22/19 - 2200 67.7 34 38.2 6.6 NNW | 327 11.0 NW | 325 0.00 0 0.00 59.2 86.2
4/22/19 - 2100 72.6 25 34.8 6.4 NNW | 333 10.5 NW | 313 0.00 0 0.00 59.2 86.2
4/22/19 - 2000 76.3 23 36.1 6.1 NNW | 335 9.6 NW | 316 0.00 3 0.00 59.2 86.2
4/22/19 - 1900 82.1 21 37.9 4.8 NNW | 339 8.0 NNW | 348 0.00 16 0.00 59.2 86.2
4/22/19 - 1800 84.4 17 35.0 8.2 NNW | 342 14.0 NNW | 341 0.00 36 0.00 59.2 86.2
4/22/19 - 1700 85.2 16 33.6 8.8 NNW | 343 15.3 NNW | 341 0.00 52 0.00 59.2 86.2
4/22/19 - 1600 85.1 17 35.7 9.1 NNW | 335 16.2 WNW | 301 0.00 65 0.00 59.2 86.2
4/22/19 - 1500 84.3 18 36.8 8.8 NNW | 334 15.2 WNW | 296 0.00 74 0.00 59.2 85.2
4/22/19 - 1400 82.7 22 40.0 9.1 N | 349 17.3 NNE | 19 0.00 78 0.00 59.2 84.2
4/22/19 - 1300 80.3 26 42.2 9.3 NNW | 342 18.5 N | 350 0.00 77 0.00 59.2 82.0
4/22/19 - 1200 77.9 28 42.5 9.8 NNW | 337 19.5 N | 1 0.00 71 0.00 59.2 79.6
4/22/19 - 1100 74.9 31 42.6 11.9 NNW | 343 20.2 NNE | 26 0.00 62 0.00 59.2 76.6
4/22/19 - 1000 71.7 35 42.4 12.3 NNW | 346 20.9 NNW | 337 0.00 48 0.00 59.2 73.8
4/22/19 - 0900 68.6 37 41.6 13.3 NNW | 346 20.4 N | 0 0.00 32 0.00 59.2 70.0
4/22/19 - 0800 65.1 42 41.2 12.4 NNW | 344 18.0 NNW | 337 0.00 11 0.00 59.2 67.4
4/22/19 - 0700 63.3 45 41.8 12.2 NNW | 344 17.7 NNW | 343 0.00 1 0.00 59.2 64.2
4/22/19 - 0600 62.4 49 43.0 9.0 NNW | 339 15.2 NNW | 339 0.00 0 0.00 59.2 63.7
4/22/19 - 0500 63.1 48 43.3 9.8 NNW | 346 15.3 NNW | 342 0.00 0 0.00 59.2 63.7
4/22/19 - 0400 61.8 54 44.7 8.7 NNW | 340 14.3 - 0.00 0 0.00 59.2 63.5
4/22/19 - 0300 61.4 57 46.2 7.8 NNW | 332 13.6 NW | 326 0.00 0 0.00 59.2 62.9
4/22/19 - 0200 61.7 59 47.1 7.6 NNW | 332 15.5 NNW | 342 0.00 0 0.00 59.2 62.8
4/22/19 - 0100 60.2 65 48.6 5.5 NW | 318 11.3 NW | 320 0.00 0 0.00 59.2 61.6
4/22/19 - 0000 52.8 85 48.4 2.1 NW | 311 10.1 NNW | 337 0.00 0 0.00 42.1 76.8
4/21/19 - 2300 52.2 88 48.8 1.0 NNW | 347 4.3 NNW | 348 0.00 0 0.00 42.1 76.8
4/21/19 - 2200 54.1 86 49.9 0.7 NE | 39 3.4 ENE | 64 0.00 0 0.00 42.1 76.8
4/21/19 - 2100 57.9 79 51.2 0.5 NNE | 25 3.9 NE | 47 0.00 0 0.00 42.1 76.8
4/21/19 - 2000 65.9 61 51.8 1.9 N | 8 7.6 NNW | 334 0.00 3 0.00 42.1 76.8
4/21/19 - 1900 72.7 46 50.7 3.0 SW | 215 6.9 SSW | 211 0.00 18 0.00 42.1 76.8
4/21/19 - 1800 73.7 44 50.2 5.8 WSW | 240 12.1 WSW | 243 0.00 35 0.00 42.1 76.8
4/21/19 - 1700 75.3 41 49.9 6.1 W | 260 12.6 W | 275 0.00 51 0.00 42.1 76.8
4/21/19 - 1600 75.1 44 51.5 7.8 W | 263 13.8 WSW | 258 0.00 63 0.00 42.1 76.8
4/21/19 - 1500 74.6 42 49.8 5.1 WSW | 257 10.6 WNW | 288 0.00 72 0.00 42.1 76.8
4/21/19 - 1400 72.5 47 51.4 5.2 SSE | 162 10.3 SSE | 168 0.00 76 0.00 42.1 73.8
4/21/19 - 1300 69.7 49 49.9 4.9 S | 176 10.0 S | 173 0.00 76 0.00 42.1 72.0
4/21/19 - 1200 67.3 55 50.3 4.9 SSE | 160 10.8 SE | 141 0.00 70 0.00 42.1 68.9
4/21/19 - 1100 64.4 59 50.0 3.8 SSE | 156 7.4 SE | 134 0.00 57 0.00 42.1 66.0
4/21/19 - 1000 60.5 66 49.1 3.5 S | 188 6.4 S | 170 0.00 46 0.00 42.1 62.8
4/21/19 - 0900 55.5 76 47.9 0.5 SE | 133 4.8 S | 169 0.00 31 0.00 42.1 58.8
4/21/19 - 0800 45.6 95 44.2 0.1 E | 79 2.1 ENE | 70 0.00 10 0.00 42.1 56.3
4/21/19 - 0700 42.6 95 41.2 0.3 N | 11 2.9 NNE | 27 0.00 1 0.00 42.1 56.3
4/21/19 - 0600 43.1 94 41.6 0.4 N | 349 3.4 NW | 306 0.00 0 0.00 42.4 56.3
4/21/19 - 0500 44.2 93 42.3 0.6 NE | 50 3.3 WNW | 295 0.00 0 0.00 42.8 56.3
4/21/19 - 0400 45.3 92 43.0 0.4 NE | 50 2.7 N | 349 0.00 0 0.00 44.8 56.3
4/21/19 - 0300 47.5 88 44.0 0.7 NNE | 13 3.1 S | 172 0.00 0 0.00 45.8 56.3
4/21/19 - 0200 50.9 80 45.0 2.2 N | 5 6.3 NNW | 333 0.00 0 0.00 49.0 56.3
4/21/19 - 0100 54.5 72 45.6 4.2 NNW | 344 9.1 NW | 318 0.00 0 0.00 53.0 56.3
4/21/19 - 0000 55.3 71 45.9 5.4 NNW | 344 12.6 NNW | 338 0.00 0 0.00 48.6 67.8
4/20/19 - 2300 51.8 81 46.1 0.4 SSW | 202 3.6 SSW | 195 0.00 0 0.00 48.6 67.8
4/20/19 - 2200 57.3 65 45.8 4.2 NNW | 347 7.8 NNW | 328 0.00 0 0.00 48.6 67.8
4/20/19 - 2100 57.6 68 46.9 2.7 N | 353 5.9 SE | 140 0.00 0 0.00 48.6 67.8
4/20/19 - 2000 61.0 61 47.6 4.7 NNE | 12 10.3 - 0.00 2 0.00 48.6 67.8
4/20/19 - 1900 63.2 58 48.0 5.8 SW | 232 14.3 SW | 236 0.00 17 0.00 48.6 67.8
4/20/19 - 1800 64.6 56 48.8 9.2 SW | 229 16.3 SSW | 212 0.00 34 0.00 48.6 67.8
4/20/19 - 1700 64.7 57 49.3 12.4 WSW | 241 20.0 SW | 233 0.00 48 0.00 48.6 67.8
4/20/19 - 1600 66.2 56 50.0 12.4 WSW | 247 22.4 W | 278 0.00 64 0.00 48.6 67.8
4/20/19 - 1500 66.6 56 50.7 10.8 SW | 235 18.2 SW | 230 0.00 72 0.00 48.6 67.8
4/20/19 - 1400 66.2 60 51.9 8.0 SW | 234 16.3 SW | 220 0.00 61 0.00 48.6 67.8
4/20/19 - 1300 64.7 62 51.5 4.2 WSW | 244 13.6 WNW | 291 0.00 44 0.00 48.6 66.1
4/20/19 - 1200 65.0 62 51.4 6.7 SW | 226 14.0 WSW | 240 0.00 59 0.00 48.6 66.1
4/20/19 - 1100 61.8 68 51.1 4.8 WNW | 290 10.8 N | 6 0.00 60 0.00 48.6 64.4
4/20/19 - 1000 56.9 78 50.2 7.0 NNW | 339 13.3 NNW | 338 0.00 43 0.00 48.6 60.0
4/20/19 - 0900 53.6 85 49.2 3.8 NW | 316 10.5 NW | 314 0.00 11 0.00 48.6 55.1
4/20/19 - 0800 51.8 89 48.7 1.8 SSW | 207 5.3 NE | 55 0.00 4 0.00 48.6 53.2
4/20/19 - 0700 51.0 90 48.2 2.3 SSW | 194 6.8 WSW | 258 0.00 0 0.00 48.6 53.2
4/20/19 - 0600 50.4 91 48.0 2.0 NW | 312 7.3 WNW | 295 0.00 0 0.00 48.6 53.2
4/20/19 - 0500 49.7 93 47.8 1.2 ENE | 69 5.1 ESE | 104 0.00 0 0.00 48.6 53.2
4/20/19 - 0400 49.3 93 47.4 1.4 E | 89 4.6 E | 89 0.00 0 0.00 48.6 53.2
4/20/19 - 0300 49.9 91 47.5 1.0 E | 101 3.8 ENE | 65 0.00 0 0.00 49.0 53.2
4/20/19 - 0200 51.2 90 48.4 1.9 NE | 55 5.1 ENE | 60 0.00 0 0.00 50.5 53.2
4/20/19 - 0100 52.7 88 49.1 0.7 N | 1 3.4 WNW | 289 0.00 0 0.00 52.0 53.2
4/20/19 - 0000 53.2 87 49.3 1.4 ENE | 64 3.9 ENE | 59 0.00 0 0.00 51.0 83.5
4/19/19 - 2300 55.2 80 49.2 0.8 NE | 49 3.8 ENE | 74 0.00 0 0.00 51.0 83.5
4/19/19 - 2200 58.8 71 49.3 2.3 ESE | 120 5.4 SW | 220 0.00 0 0.00 51.0 83.5
4/19/19 - 2100 63.4 60 49.2 2.5 SW | 218 12.3 NNW | 330 0.00 0 0.00 51.0 83.5
4/19/19 - 2000 67.5 54 50.3 2.2 NW | 324 6.8 WNW | 290 0.00 2 0.00 51.0 83.5
4/19/19 - 1900 71.4 46 49.4 2.9 NW | 314 6.6 NNW | 332 0.00 8 0.00 51.0 83.5
4/19/19 - 1800 74.6 44 51.5 4.1 NW | 309 13.8 W | 259 0.00 19 0.00 51.0 83.5
4/19/19 - 1700 79.1 42 53.8 6.4 WSW | 246 11.1 W | 264 0.00 52 0.00 51.0 83.5
4/19/19 - 1600 81.6 33 49.7 6.7 W | 262 11.3 W | 270 0.00 64 0.00 51.0 83.5
4/19/19 - 1500 82.5 36 52.5 6.8 SSW | 208 12.0 WSW | 251 0.00 69 0.00 51.0 83.5
4/19/19 - 1400 79.4 50 59.4 3.7 SE | 127 7.6 ESE | 112 0.00 76 0.00 51.0 81.0
4/19/19 - 1300 77.2 51 57.9 3.2 SE | 137 6.9 SE | 135 0.00 76 0.00 51.0 78.2
4/19/19 - 1200 74.1 56 57.3 2.7 SE | 130 6.4 SE | 126 0.00 61 0.00 51.0 76.0
4/19/19 - 1100 71.8 59 56.6 3.0 S | 169 5.8 SSW | 196 0.00 55 0.00 51.0 73.7
4/19/19 - 1000 67.6 67 56.2 1.4 W | 271 4.3 WNW | 296 0.00 49 0.00 51.0 71.3
4/19/19 - 0900 60.8 77 53.5 0.2 SSW | 194 2.9 S | 185 0.00 25 0.00 51.0 63.4
4/19/19 - 0800 56.7 82 51.2 3.7 N | 1 7.6 N | 8 0.00 8 0.00 51.0 60.2
4/19/19 - 0700 52.1 89 49.0 2.7 NNW | 337 6.1 NNW | 342 0.00 1 0.00 51.0 60.2
4/19/19 - 0600 53.9 87 50.0 6.0 N | 349 11.5 NW | 319 0.00 0 0.00 51.2 60.2
4/19/19 - 0500 51.8 92 49.7 2.5 NNW | 347 6.6 NNW | 345 0.00 0 0.00 51.2 60.2
4/19/19 - 0400 52.6 91 50.1 1.2 N | 350 4.9 NW | 317 0.00 0 0.00 51.5 60.2
4/19/19 - 0300 53.4 90 50.6 0.8 NNE | 20 4.4 N | 0 0.00 0 0.00 52.2 60.2
4/19/19 - 0200 56.1 86 52.1 2.9 N | 356 7.1 N | 349 0.00 0 0.00 55.1 60.2
4/19/19 - 0100 58.4 82 52.8 3.0 N | 356 7.3 NE | 49 0.00 0 0.00 55.9 60.2
4/19/19 - 0000 59.2 82 53.5 2.8 NNW | 348 6.3 N | 0 0.00 0 0.00 45.5 82.6
4/18/19 - 2300 60.2 80 54.1 4.3 N | 351 8.4 NW | 325 0.00 0 0.00 45.5 82.6
4/18/19 - 2200 61.3 79 54.7 5.8 NNW | 345 10.0 NNW | 338 0.00 0 0.00 45.5 82.6
4/18/19 - 2100 63.1 76 55.5 4.6 N | 349 6.8 NNW | 338 0.00 0 0.00 45.5 82.6
4/18/19 - 2000 69.3 68 58.2 2.3 N | 5 5.9 N | 11 0.00 2 0.00 45.5 82.6
4/18/19 - 1900 77.6 44 53.7 3.0 S | 191 6.6 SSE | 160 0.00 13 0.00 45.5 82.6
4/18/19 - 1800 79.8 45 56.4 6.1 S | 175 11.3 S | 181 0.00 30 0.00 45.5 82.6
4/18/19 - 1700 81.3 39 53.7 4.7 SE | 146 10.1 S | 171 0.00 48 0.00 45.5 82.6
4/18/19 - 1600 81.1 37 52.1 4.6 SE | 128 9.1 SE | 124 0.00 63 0.00 45.5 82.6
4/18/19 - 1500 80.6 41 55.1 4.6 SSE | 168 9.3 SSE | 165 0.00 70 0.00 45.5 82.6
4/18/19 - 1400 78.1 45 55.2 5.5 SSE | 165 9.6 S | 180 0.00 74 0.00 45.5 79.8
4/18/19 - 1300 75.1 50 55.4 5.5 SE | 135 10.8 SE | 145 0.00 74 0.00 45.5 76.8
4/18/19 - 1200 72.3 55 55.1 4.9 S | 180 10.1 ESE | 123 0.00 69 0.00 45.5 74.4
4/18/19 - 1100 68.0 61 54.0 3.2 SSW | 194 6.3 S | 183 0.00 59 0.00 45.5 70.3
4/18/19 - 1000 64.0 65 52.1 1.9 S | 184 5.3 SSW | 202 0.00 45 0.00 45.5 66.5
4/18/19 - 0900 57.2 81 51.2 2.1 E | 85 5.1 NNW | 347 0.00 29 0.00 45.5 61.7
4/18/19 - 0800 48.0 96 46.8 0.3 NNE | 20 2.7 N | 5 0.00 9 0.00 45.5 56.4
4/18/19 - 0700 46.2 94 44.8 0.3 N | 5 2.4 NE | 44 0.00 1 0.00 45.5 56.4
4/18/19 - 0600 47.3 92 45.2 0.3 N | 4 2.4 NE | 40 0.00 0 0.00 46.4 56.4
4/18/19 - 0500 51.5 84 46.9 1.5 N | 352 5.8 N | 0 0.00 0 0.00 48.0 56.4
4/18/19 - 0400 54.8 79 48.4 5.1 N | 349 8.3 N | 354 0.00 0 0.00 53.4 56.4
4/18/19 - 0300 54.2 81 48.6 4.5 N | 357 8.4 NNW | 333 0.00 0 0.00 53.4 56.4
4/18/19 - 0200 55.1 80 49.1 5.1 NNW | 339 8.1 N | 354 0.00 0 0.00 54.7 56.4
4/18/19 - 0100 55.5 79 49.2 5.7 NNW | 346 10.5 N | 352 0.00 0 0.00 54.7 56.4
4/18/19 - 0000 56.2 77 49.3 4.7 N | 354 7.3 N | 349 0.00 0 0.00 40.7 75.1
4/17/19 - 2300 57.2 78 50.4 5.1 N | 355 8.3 N | 352 0.00 0 0.00 40.7 75.1
4/17/19 - 2200 57.4 82 51.8 3.8 N | 359 7.8 N | 350 0.00 0 0.00 40.7 75.1
4/17/19 - 2100 59.4 79 53.0 1.8 NNW | 347 4.6 N | 2 0.00 0 0.00 40.7 75.1
4/17/19 - 2000 66.0 63 52.9 1.3 N | 8 4.3 WSW | 258 0.00 2 0.00 40.7 75.1
4/17/19 - 1900 72.3 51 53.1 4.1 WSW | 241 8.0 SW | 220 0.00 17 0.00 40.7 75.1
4/17/19 - 1800 73.4 50 53.7 6.6 SW | 232 11.5 SW | 236 0.00 34 0.00 40.7 75.1
4/17/19 - 1700 74.2 45 51.4 6.1 SW | 218 12.5 WSW | 255 0.00 49 0.00 40.7 75.1
4/17/19 - 1600 73.5 48 52.5 5.7 S | 182 10.8 S | 176 0.00 62 0.00 40.7 74.5
4/17/19 - 1500 72.7 49 52.6 4.6 S | 180 9.6 S | 172 0.00 71 0.00 40.7 73.9
4/17/19 - 1400 70.2 51 51.2 3.7 S | 181 7.4 S | 191 0.00 75 0.00 40.7 72.1
4/17/19 - 1300 68.0 54 50.6 4.1 SSE | 163 9.1 S | 177 0.00 75 0.00 40.7 69.1
4/17/19 - 1200 65.1 59 50.6 3.5 SSE | 162 7.6 SE | 128 0.00 69 0.00 40.7 66.5
4/17/19 - 1100 62.6 65 50.8 3.6 SSE | 161 6.8 SSE | 159 0.00 59 0.00 40.7 64.0
4/17/19 - 1000 59.4 71 50.1 2.3 S | 191 5.9 SSW | 207 0.00 45 0.00 40.7 61.2
4/17/19 - 0900 53.3 82 48.0 0.0 SSE | 159 0.7 S | 173 0.00 29 0.00 40.7 57.8
4/17/19 - 0800 43.8 96 42.7 0.1 NE | 35 2.2 NNE | 26 0.00 9 0.00 40.7 48.8
4/17/19 - 0700 41.4 95 40.1 0.1 NNE | 12 2.6 N | 8 0.00 1 0.00 40.7 48.7
4/17/19 - 0600 43.0 94 41.3 0.4 NNE | 28 3.4 N | 9 0.00 0 0.00 41.3 48.7
4/17/19 - 0500 44.6 92 42.5 0.9 N | 358 3.3 ESE | 114 0.00 0 0.00 42.7 48.7
4/17/19 - 0400 46.4 90 43.7 2.1 N | 8 4.6 N | 2 0.00 0 0.00 45.2 48.7
4/17/19 - 0300 47.3 90 44.4 3.5 N | 356 8.1 NNW | 327 0.00 0 0.00 46.4 48.7
4/17/19 - 0200 47.9 89 44.9 4.1 N | 351 6.6 NNW | 332 0.00 0 0.00 47.0 48.7
4/17/19 - 0100 48.2 90 45.3 5.0 NNW | 345 9.6 NNW | 334 0.00 0 0.00 47.6 48.7
4/17/19 - 0000 48.5 89 45.4 1.7 NNE | 14 7.4 NNW | 343 0.00 0 0.06 43.3 67.6
4/16/19 - 2300 49.1 89 45.9 1.1 NW | 316 4.6 NNW | 336 0.00 0 0.06 43.3 67.6
4/16/19 - 2200 49.8 87 46.1 1.2 N | 5 3.4 N | 352 0.00 0 0.06 43.3 67.6
4/16/19 - 2100 53.3 79 46.9 0.8 NNE | 27 3.6 ENE | 76 0.00 0 0.06 43.3 67.6
4/16/19 - 2000 58.8 66 47.4 2.9 N | 10 5.8 W | 264 0.00 2 0.06 43.3 67.6
4/16/19 - 1900 64.8 57 49.2 3.5 WSW | 258 8.6 SSW | 204 0.00 17 0.06 43.3 67.6
4/16/19 - 1800 66.2 55 49.5 5.2 SW | 218 9.8 S | 172 0.00 33 0.06 43.3 67.4
4/16/19 - 1700 66.4 54 49.4 5.8 SSW | 196 10.0 S | 184 0.00 44 0.06 43.3 67.4
Max 85.2 96 59.4 13.3 - 22.4 - 0.00 78 0.06 66.7 86.2
Avg 62.9 64 48.4 4.3 - 8.8 - 0.00 24 - - -
Min 41.4 16 33.6 0.0 - 0.7 - 0.00 0 0.00 40.7 48.7
Total - - - - - - - 0.00 - - - -
Tip: Bookmark this page for easy future reference